Time;durP1;ratioP1;P1;durP2;ratioP2;P2;SDS_P1;SDS_P2;PMS_P1;PMS_P2;Temp;Humidity;BMP_temperature;BMP_pressure;BME280_temperature;BME280_humidity;BME280_pressure;Samples;Min_cycle;Max_cycle;Signal;HPM_P1;HPM_P2
2023/10/23 00:02:00;;;;;;;6.60;1.80;;;14.90;88.70;;;14.38;52.78;98469.50;4956574;28;114321;-79
2023/10/23 00:04:27;;;;;;;3.20;2.10;;;14.20;88.10;;;14.35;52.62;98473.78;4956645;28;114048;-79
2023/10/23 00:06:53;;;;;;;2.57;1.77;;;14.10;88.00;;;14.34;52.76;98469.38;4960966;28;124521;-82
2023/10/23 00:09:22;;;;;;;2.70;1.90;;;14.10;88.00;;;14.30;52.67;98476.78;4968090;28;123975;-80
2023/10/23 00:11:48;;;;;;;2.30;1.93;;;14.10;88.10;;;14.28;52.80;98481.88;4948707;28;115276;-79
2023/10/23 00:14:15;;;;;;;4.10;2.30;;;14.10;88.20;;;14.24;53.04;98472.59;4951485;28;114645;-80
2023/10/23 00:16:44;;;;;;;2.73;1.80;;;14.00;88.20;;;14.22;53.13;98469.38;4939510;28;123539;-79
2023/10/23 00:19:10;;;;;;;5.40;2.03;;;16.40;90.20;;;14.20;53.12;98482.78;4962490;28;124218;-82
2023/10/23 00:21:37;;;;;;;3.10;1.60;;;14.00;88.40;;;14.17;53.06;98478.72;4966080;28;114170;-79
2023/10/23 00:24:03;;;;;;;3.03;1.90;;;14.00;88.40;;;14.15;53.16;98478.25;4948878;28;113065;-80
2023/10/23 00:26:30;;;;;;;3.60;1.70;;;14.00;88.70;;;14.14;53.12;98490.53;4963531;28;124077;-82
2023/10/23 00:28:57;;;;;;;2.90;1.80;;;13.90;88.60;;;14.13;53.26;98489.72;4967333;28;123896;-79
2023/10/23 00:31:23;;;;;;;3.53;1.87;;;15.10;89.80;;;14.13;52.92;98495.28;4966233;28;114348;-79
2023/10/23 00:33:49;;;;;;;5.50;2.13;;;15.60;90.20;;;14.11;53.35;98480.94;4970304;28;113104;-79
2023/10/23 00:36:16;;;;;;;3.77;2.10;;;13.90;89.00;;;14.10;53.29;98484.88;4967576;28;123975;-79
2023/10/23 00:38:42;;;;;;;3.83;1.90;;;13.90;89.00;;;14.08;53.28;98495.50;4963752;28;124152;-79
2023/10/23 00:41:09;;;;;;;3.70;2.30;;;16.20;90.50;;;14.05;53.34;98487.03;4960932;28;114319;-79
2023/10/23 00:43:36;;;;;;;3.03;2.03;;;13.90;89.10;;;14.03;53.35;98501.28;4968434;28;114005;-79
2023/10/23 00:46:10;;;;;;;4.80;2.17;;;13.90;89.20;;;14.01;53.53;98503.56;4968198;28;123949;-79
2023/10/23 00:48:37;;;;;;;2.90;1.87;;;14.40;89.70;;;13.99;53.51;98492.00;4963791;28;123782;-79
2023/10/23 00:51:09;;;;;;;3.03;1.93;;;13.80;89.20;;;13.97;53.42;98494.31;4954907;28;114083;-80
2023/10/23 00:53:38;;;;;;;2.97;1.90;;;15.70;90.50;;;13.93;53.78;98498.91;4961707;28;113709;-79
2023/10/23 00:56:07;;;;;;;3.33;1.70;;;13.70;90.00;;;13.91;53.73;98496.47;4957165;28;124233;-79
2023/10/23 00:58:42;;;;;;;3.90;1.73;;;13.70;89.40;;;13.90;53.71;98502.38;4998585;28;123960;-79
2023/10/23 01:01:11;;;;;;;3.80;2.23;;;13.70;89.60;;;13.86;53.62;98496.72;4968123;28;115191;-78
2023/10/23 01:03:42;;;;;;;2.73;2.00;;;12.30;88.20;;;13.84;53.93;98495.44;4970096;28;114291;-79
2023/10/23 01:06:10;;;;;;;3.67;2.23;;;11.60;87.80;;;13.78;53.93;98494.84;4969352;28;123766;-78
2023/10/23 01:08:37;;;;;;;2.23;1.80;;;13.60;89.60;;;13.75;53.97;98487.16;4969063;28;123415;-79
2023/10/23 01:11:07;;;;;;;6.97;2.30;;;13.60;89.90;;;13.74;53.77;98485.56;4963925;28;113892;-79
2023/10/23 01:13:34;;;;;;;5.77;2.00;;;13.90;90.00;;;13.74;53.95;98487.53;4963913;28;113647;-78
2023/10/23 01:16:01;;;;;;;10.10;2.00;;;13.60;90.00;;;13.74;53.87;98481.97;4967832;28;124000;-79
2023/10/23 01:18:28;;;;;;;5.03;2.10;;;14.40;90.30;;;13.70;53.93;98470.72;4965740;28;122958;-79
2023/10/23 01:20:54;;;;;;;4.87;2.40;;;13.50;90.00;;;13.67;53.97;98477.78;4952194;28;114189;-79
2023/10/23 01:23:27;;;;;;;4.80;1.83;;;13.90;90.10;;;13.62;54.24;98475.22;4955194;28;113884;-78
2023/10/23 01:25:54;;;;;;;6.23;2.53;;;13.50;90.00;;;13.57;54.12;98472.66;4958379;28;124109;-78
2023/10/23 01:28:20;;;;;;;5.43;2.10;;;15.40;90.90;;;13.55;54.28;98469.41;4964356;28;122952;-79
2023/10/23 01:30:47;;;;;;;3.10;1.53;;;13.50;90.10;;;13.53;54.35;98468.91;4953983;28;114821;-79
2023/10/23 01:33:13;;;;;;;6.20;2.10;;;15.40;90.90;;;13.51;54.26;98471.22;4968162;28;113634;-79
2023/10/23 01:35:43;;;;;;;7.33;1.97;;;13.40;90.00;;;13.51;54.35;98478.72;4999219;28;124008;-78
2023/10/23 01:38:15;;;;;;;5.60;1.80;;;13.40;90.10;;;13.50;54.33;98477.94;4966157;28;123821;-80
2023/10/23 01:40:44;;;;;;;2.97;1.90;;;13.30;90.10;;;13.48;54.27;98485.78;4999549;28;114405;-79
2023/10/23 01:43:11;;;;;;;4.80;2.37;;;13.30;90.10;;;13.47;54.37;98478.59;4968018;28;113908;-79
2023/10/23 01:45:37;;;;;;;2.13;1.63;;;14.00;90.50;;;13.46;54.41;98480.56;4967550;28;124085;-80
2023/10/23 01:48:05;;;;;;;3.97;2.10;;;13.30;90.20;;;13.46;54.37;98488.09;4969298;28;123062;-79
2023/10/23 01:50:34;;;;;;;3.97;1.90;;;13.30;90.30;;;13.46;54.41;98480.56;4962670;28;114580;-79
2023/10/23 01:53:00;;;;;;;3.60;1.90;;;14.60;90.90;;;13.45;54.43;98478.13;4963268;28;114994;-79
2023/10/23 01:55:27;;;;;;;3.73;2.30;;;15.00;91.00;;;13.43;54.56;98475.72;4970838;28;123980;-80
2023/10/23 01:57:57;;;;;;;3.20;1.80;;;13.20;90.30;;;13.43;54.36;98480.44;4968621;28;123120;-80
2023/10/23 02:00:28;;;;;;;3.37;1.60;;;14.50;90.90;;;13.41;54.24;98475.22;4970973;28;113962;-79
2023/10/23 02:02:55;;;;;;;2.73;1.80;;;14.60;90.90;;;13.39;54.54;98473.94;4990046;28;113154;-79
2023/10/23 02:05:22;;;;;;;5.13;1.80;;;13.20;90.30;;;13.35;54.58;98481.31;4988977;28;123142;-79
2023/10/23 02:07:50;;;;;;;4.20;2.00;;;13.60;90.50;;;13.28;54.67;98475.50;4972884;28;123972;-79
2023/10/23 02:10:17;;;;;;;4.13;2.20;;;13.10;90.40;;;13.22;54.85;98484.00;4971595;28;114120;-79
2023/10/23 02:12:44;;;;;;;4.70;1.90;;;11.60;89.60;;;13.16;54.90;98473.44;4975049;28;115699;-79
2023/10/23 02:15:11;;;;;;;5.13;2.03;;;13.00;90.50;;;13.10;55.00;98481.13;4973734;28;123331;-79
2023/10/23 02:17:38;;;;;;;6.73;2.00;;;12.90;90.40;;;13.03;54.98;98473.38;4975018;28;123873;-81
2023/10/23 02:20:05;;;;;;;3.80;2.10;;;12.90;90.50;;;12.99;55.14;98479.91;4975510;28;114313;-81
2023/10/23 02:22:33;;;;;;;3.57;2.07;;;12.90;90.50;;;12.98;55.29;98473.56;4961096;28;114452;-80
2023/10/23 02:25:00;;;;;;;1.77;1.63;;;12.90;90.50;;;12.95;55.21;98468.69;4976209;28;124281;-82
2023/10/23 02:27:28;;;;;;;5.10;2.10;;;12.80;90.60;;;12.94;55.27;98474.56;4976801;28;124343;-79
2023/10/23 02:29:58;;;;;;;2.47;1.63;;;12.80;90.60;;;12.94;55.23;98480.09;4968264;28;113498;-82
2023/10/23 02:32:24;;;;;;;5.37;2.03;;;12.80;90.70;;;12.94;55.38;98471.78;4970290;28;113115;-80
2023/10/23 02:34:51;;;;;;;3.80;2.50;;;12.90;90.80;;;12.95;55.74;98478.94;4975209;28;124021;-82
2023/10/23 02:37:18;;;;;;;4.20;2.07;;;14.10;91.40;;;12.92;55.64;98479.63;4976471;28;122705;-80
2023/10/23 02:39:44;;;;;;;2.90;1.70;;;12.70;90.80;;;12.87;55.45;98477.88;4960649;28;114022;-80
2023/10/23 02:42:11;;;;;;;2.97;1.80;;;12.70;90.80;;;12.87;55.77;98468.72;4975532;28;114992;-80
2023/10/23 02:44:38;;;;;;;3.17;1.83;;;13.80;91.40;;;12.86;55.50;98475.44;4975915;28;123232;-81
2023/10/23 02:47:05;;;;;;;3.10;1.80;;;11.00;90.10;;;12.82;55.61;98478.88;4976946;28;123957;-83
2023/10/23 02:49:33;;;;;;;5.33;2.00;;;13.30;91.10;;;12.81;55.35;98488.34;4966831;28;113361;-83
2023/10/23 02:52:00;;;;;;;4.60;2.07;;;12.70;90.80;;;12.81;55.46;98479.19;4972895;28;113401;-82
2023/10/23 02:54:28;;;;;;;5.90;2.40;;;15.20;92.40;;;12.77;55.73;98487.38;4970074;28;123083;-78
2023/10/23 02:56:58;;;;;;;4.83;2.30;;;12.60;90.90;;;12.70;55.76;98484.31;4989992;28;123670;-79
2023/10/23 02:59:33;;;;;;;2.90;1.90;;;12.60;90.90;;;12.67;55.67;98490.53;4964415;28;114376;-80
2023/10/23 03:02:00;;;;;;;2.37;1.90;;;12.70;91.00;;;12.66;55.63;98482.56;4972680;28;114086;-80
2023/10/23 03:04:27;;;;;;;3.90;2.13;;;12.50;90.90;;;12.65;55.87;98486.47;4966943;28;123609;-79
2023/10/23 03:06:55;;;;;;;4.23;2.00;;;12.50;91.00;;;12.64;55.77;98488.44;4968470;28;123842;-79
2023/10/23 03:09:22;;;;;;;5.00;2.20;;;12.50;91.00;;;12.65;55.89;98487.28;4973762;28;113110;-78
2023/10/23 03:11:50;;;;;;;2.73;2.10;;;12.50;91.00;;;12.66;55.85;98483.38;4975603;28;113292;-79
2023/10/23 03:14:18;;;;;;;5.20;1.83;;;12.50;91.00;;;12.67;55.65;98485.00;4966291;28;123563;-82
2023/10/23 03:16:45;;;;;;;2.00;1.47;;;13.90;91.60;;;12.66;55.68;98483.38;4970191;28;125868;-78
2023/10/23 03:19:19;;;;;;;4.47;2.00;;;11.90;90.80;;;12.66;55.52;98483.38;4960263;28;114332;-79
2023/10/23 03:21:50;;;;;;;2.47;1.77;;;12.50;91.00;;;12.65;55.67;98481.72;4954331;28;113894;-79
2023/10/23 03:24:19;;;;;;;2.70;1.80;;;12.90;91.20;;;12.64;55.44;98488.44;4964097;28;124104;-78
2023/10/23 03:26:45;;;;;;;4.93;2.50;;;12.50;91.00;;;12.64;55.56;98491.19;4954162;28;123539;-79
2023/10/23 03:29:14;;;;;;;5.50;1.60;;;12.50;91.10;;;12.64;55.44;98491.19;4949452;28;115257;-78
2023/10/23 03:31:41;;;;;;;3.83;2.27;;;12.40;91.00;;;12.63;55.83;98489.59;4958757;28;114774;-78
2023/10/23 03:34:07;;;;;;;3.20;1.90;;;12.40;91.10;;;12.62;55.78;98485.19;4958083;28;124000;-78
2023/10/23 03:36:34;;;;;;;3.13;2.10;;;13.20;91.40;;;12.60;55.55;98485.53;4954423;28;123594;-78
2023/10/23 03:39:01;;;;;;;4.00;2.83;;;12.40;91.10;;;12.59;56.01;98483.88;4958058;28;114335;-78
2023/10/23 03:41:27;;;;;;;6.03;3.00;;;12.90;91.40;;;12.59;56.02;98492.19;4967084;28;114206;-79
2023/10/23 03:43:54;;;;;;;4.60;2.23;;;15.10;92.40;;;12.58;55.69;98492.53;4965718;28;124903;-78
2023/10/23 03:46:20;;;;;;;3.70;2.20;;;13.70;91.80;;;12.52;55.79;98482.78;4953785;28;124102;-81
2023/10/23 03:48:52;;;;;;;4.27;1.80;;;13.50;91.70;;;12.46;55.56;98484.91;4950217;28;114850;-78
2023/10/23 03:51:18;;;;;;;3.20;1.80;;;12.30;91.10;;;12.37;55.82;98478.63;4949891;28;114025;-78
2023/10/23 03:53:47;;;;;;;5.20;2.10;;;12.20;91.00;;;12.32;55.95;98487.91;4957349;28;123800;-78
2023/10/23 03:56:17;;;;;;;3.30;1.90;;;12.20;91.10;;;12.30;56.10;98473.56;4949433;28;124071;-80
2023/10/23 03:58:44;;;;;;;4.70;2.37;;;12.20;91.10;;;12.28;56.06;98473.13;4957702;28;114319;-78
2023/10/23 04:01:14;;;;;;;3.70;1.87;;;12.10;91.10;;;12.26;56.26;98475.41;4960921;28;114088;-79
2023/10/23 04:03:41;;;;;;;3.90;1.90;;;12.10;91.20;;;12.24;56.35;98480.44;4960860;28;123858;-79
2023/10/23 04:06:08;;;;;;;4.83;2.63;;;11.90;91.20;;;12.23;56.23;98478.84;4956104;28;123969;-79
2023/10/23 04:08:34;;;;;;;3.30;2.20;;;12.10;91.60;;;12.24;56.17;98479.63;4962810;28;114461;-79
2023/10/23 04:11:03;;;;;;;3.53;2.53;;;12.10;91.30;;;12.24;56.36;98472.13;4967134;28;113915;-79
2023/10/23 04:13:32;;;;;;;4.80;2.10;;;12.10;91.40;;;12.25;56.33;98467.41;4964791;28;122998;-79
2023/10/23 04:16:00;;;;;;;4.50;2.53;;;12.90;91.80;;;12.26;56.32;98469.03;4961981;28;123647;-79
2023/10/23 04:18:27;;;;;;;4.10;2.10;;;12.20;91.50;;;12.25;56.25;98468.25;4953920;28;115241;-79
2023/10/23 04:21:10;;;;;;;4.30;2.37;;;13.40;92.00;;;12.25;56.22;98464.63;4955758;28;114152;-78
2023/10/23 04:23:38;;;;;;;4.13;2.07;;;12.00;91.50;;;12.23;56.61;98464.97;4976958;28;123875;-78
2023/10/23 04:26:10;;;;;;;5.00;2.20;;;12.00;91.50;;;12.24;56.49;98463.81;5000542;28;124304;-78
2023/10/23 04:28:37;;;;;;;4.40;2.37;;;12.00;91.50;;;12.23;56.35;98467.75;5003625;28;114064;-78
2023/10/23 04:31:03;;;;;;;5.37;2.50;;;13.10;92.00;;;12.21;56.50;98467.25;4969538;28;115321;-78
2023/10/23 04:33:30;;;;;;;3.53;2.23;;;12.30;91.60;;;12.21;56.52;98458.97;4966345;28;124509;-78
2023/10/23 04:35:58;;;;;;;4.63;2.53;;;12.00;91.60;;;12.20;56.26;98459.28;4977241;28;123417;-78
2023/10/23 04:38:33;;;;;;;3.60;2.30;;;12.20;91.70;;;12.20;56.70;98460.09;4979177;28;113560;-78
2023/10/23 04:40:59;;;;;;;4.97;2.67;;;11.90;91.60;;;12.17;56.62;98455.25;4959840;28;113988;-78
2023/10/23 04:43:29;;;;;;;4.97;2.63;;;12.00;91.70;;;12.16;56.73;98459.94;4946354;28;124150;-79
2023/10/23 04:45:59;;;;;;;7.57;2.63;;;12.10;91.80;;;12.13;56.50;98460.59;4961512;28;124313;-78
2023/10/23 04:48:26;;;;;;;10.23;3.47;;;11.90;91.70;;;12.10;56.68;98454.94;4982608;28;114827;-77
2023/10/23 04:51:01;;;;;;;12.13;3.80;;;11.90;91.70;;;12.06;56.85;98462.25;4948186;28;114001;-78
2023/10/23 04:53:27;;;;;;;4.93;2.70;;;12.10;91.80;;;12.02;56.94;98448.28;4965550;28;124086;-78
2023/10/23 04:55:58;;;;;;;5.27;2.50;;;11.90;91.80;;;11.98;57.06;98450.06;4953105;28;122645;-78
2023/10/23 04:58:24;;;;;;;5.60;2.70;;;11.80;91.80;;;11.93;57.03;98450.25;4949395;28;114366;-79
2023/10/23 05:00:51;;;;;;;5.90;3.40;;;12.00;91.80;;;11.87;57.39;98446.84;4949498;28;114625;-78
2023/10/23 05:03:21;;;;;;;8.00;3.90;;;12.50;92.10;;;11.86;57.01;98449.94;4934029;28;123214;-81
2023/10/23 05:05:48;;;;;;;8.03;2.90;;;11.70;91.80;;;11.88;57.26;98451.25;4948657;28;124014;-78
2023/10/23 05:08:14;;;;;;;4.27;2.73;;;11.70;91.80;;;11.84;57.32;98432.81;4949037;28;115280;-78
2023/10/23 05:10:42;;;;;;;5.23;3.10;;;11.70;91.90;;;11.74;57.44;98428.47;4962339;28;114837;-78
2023/10/23 05:13:13;;;;;;;3.30;2.30;;;11.60;91.90;;;11.69;56.95;98437.75;4949615;28;123343;-78
2023/10/23 05:15:39;;;;;;;6.10;2.33;;;12.30;92.30;;;11.69;57.62;98428.63;4942855;28;122895;-78
2023/10/23 05:18:06;;;;;;;5.03;2.97;;;11.50;91.90;;;11.66;57.60;98424.56;4952222;28;113910;-78
2023/10/23 05:20:34;;;;;;;3.33;2.50;;;11.50;92.00;;;11.65;57.34;98433.19;4962740;28;113985;-77
2023/10/23 05:23:00;;;;;;;6.00;2.90;;;11.50;92.00;;;11.63;57.46;98436.31;4954510;28;124550;-78
2023/10/23 05:25:27;;;;;;;4.47;2.50;;;11.50;92.00;;;11.66;57.70;98438.41;4962347;28;123699;-78
2023/10/23 05:27:53;;;;;;;3.90;2.40;;;11.50;92.00;;;11.65;57.42;98434.00;4951370;28;114430;-78
2023/10/23 05:30:20;;;;;;;6.33;2.47;;;11.80;92.20;;;11.66;57.68;98434.81;4959074;28;114063;-79
2023/10/23 05:32:46;;;;;;;5.90;2.30;;;11.50;92.10;;;11.65;57.59;98434.00;4963033;28;124032;-79
2023/10/23 05:35:12;;;;;;;3.20;1.90;;;12.60;92.60;;;11.63;57.35;98436.31;4951108;28;123877;-81
2023/10/23 05:37:39;;;;;;;4.87;2.87;;;11.50;92.10;;;11.62;57.61;98436.63;4954786;28;113799;-81
2023/10/23 05:40:10;;;;;;;5.40;2.53;;;13.00;92.80;;;11.60;57.71;98442.47;4955132;28;113267;-79
2023/10/23 05:42:36;;;;;;;6.27;2.70;;;11.40;92.10;;;11.59;57.77;98446.38;4951339;28;124021;-79
2023/10/23 05:45:03;;;;;;;8.43;2.13;;;11.40;92.10;;;11.58;57.65;98444.78;4953127;28;124354;-79
2023/10/23 05:47:29;;;;;;;6.07;2.40;;;11.40;92.20;;;11.59;57.63;98446.38;4943372;28;113139;-79
2023/10/23 05:49:56;;;;;;;10.10;2.77;;;11.40;92.20;;;11.59;57.65;98448.34;4978857;28;113075;-79
2023/10/23 05:52:22;;;;;;;6.47;2.23;;;12.00;92.50;;;11.55;57.79;98458.44;4963798;28;124426;-79
2023/10/23 05:54:49;;;;;;;4.33;2.40;;;11.30;92.20;;;11.53;57.86;98457.97;4953589;28;124060;-79
2023/10/23 05:57:18;;;;;;;3.27;1.90;;;11.30;92.20;;;11.52;57.73;98479.25;4967695;28;115230;-78
2023/10/23 05:59:47;;;;;;;5.83;3.20;;;12.00;92.50;;;11.49;57.67;98472.41;4951157;28;115167;-79
2023/10/23 06:02:13;;;;;;;8.07;2.63;;;11.40;92.30;;;11.50;57.48;98474.06;4950675;28;124216;-78
2023/10/23 06:04:43;;;;;;;3.60;2.23;;;11.30;92.30;;;11.53;57.64;98469.03;4967797;28;123921;-79
2023/10/23 06:07:10;;;;;;;5.40;2.50;;;11.30;92.30;;;11.55;57.56;98466.72;4950363;28;114504;-79
2023/10/23 06:09:36;;;;;;;4.93;2.57;;;11.30;92.30;;;11.56;57.44;98474.72;4986143;28;113875;-78
2023/10/23 06:12:05;;;;;;;6.53;2.73;;;11.30;92.40;;;11.55;57.90;98472.25;4968053;28;124486;-79
2023/10/23 06:14:32;;;;;;;7.63;3.63;;;11.30;92.50;;;11.50;58.33;98460.25;4960512;28;122793;-78
2023/10/23 06:17:01;;;;;;;4.93;3.00;;;11.50;92.70;;;11.50;58.06;98464.97;4961825;28;114321;-79
2023/10/23 06:19:31;;;;;;;5.83;3.07;;;11.20;92.70;;;11.47;58.32;98462.81;4951241;28;113132;-79
2023/10/23 06:21:57;;;;;;;8.10;3.23;;;11.30;92.80;;;11.38;58.68;98462.84;4976610;28;124374;-79
2023/10/23 06:24:26;;;;;;;8.53;3.50;;;11.20;92.80;;;11.31;59.02;98468.06;4967888;28;123859;-79
2023/10/23 06:26:53;;;;;;;6.67;3.50;;;11.20;93.00;;;11.26;59.32;98471.00;4970970;28;113026;-79
2023/10/23 06:29:19;;;;;;;10.20;4.23;;;11.70;93.30;;;11.27;59.14;98467.06;4968841;28;114064;-79
2023/10/23 06:31:46;;;;;;;7.87;3.40;;;12.70;93.70;;;11.28;59.02;98463.16;4969847;28;125005;-78
2023/10/23 06:34:12;;;;;;;4.87;3.10;;;11.10;93.20;;;11.33;59.64;98453.91;4969904;28;124021;-79
2023/10/23 06:36:41;;;;;;;5.30;3.20;;;11.10;93.30;;;11.39;59.00;98464.47;5005504;28;114946;-78
2023/10/23 06:39:08;;;;;;;9.23;3.67;;;11.10;93.30;;;11.47;59.08;98455.34;4966369;28;114116;-79
2023/10/23 06:41:34;;;;;;;6.10;3.77;;;11.20;93.40;;;11.56;59.30;98465.59;4969756;28;123248;-79
2023/10/23 06:44:01;;;;;;;6.97;3.70;;;11.30;93.40;;;11.61;58.71;98460.72;4970350;28;123931;-79
2023/10/23 06:46:27;;;;;;;14.80;6.60;;;11.30;93.30;;;11.67;58.77;98466.88;4971197;28;115328;-79
2023/10/23 06:48:54;;;;;;;11.10;5.60;;;11.30;93.30;;;11.67;58.62;98459.41;4970573;28;115074;-79
2023/10/23 06:51:23;;;;;;;17.40;6.23;;;11.70;93.40;;;11.68;58.59;98468.50;4966521;28;124217;-78
2023/10/23 06:53:49;;;;;;;14.70;5.87;;;12.00;93.40;;;11.65;58.43;98467.19;4972923;28;123539;-77
2023/10/23 06:56:16;;;;;;;14.37;6.57;;;11.40;93.00;;;11.65;58.82;98463.63;4971704;28;113363;-77
2023/10/23 06:58:42;;;;;;;16.27;6.80;;;11.40;93.00;;;11.63;58.09;98457.59;4972043;28;113363;-77
2023/10/23 07:01:09;;;;;;;20.40;7.93;;;11.50;93.00;;;11.59;58.08;98456.66;4969873;28;124116;-78
2023/10/23 07:03:39;;;;;;;24.00;6.90;;;11.40;92.90;;;11.50;58.62;98443.63;4969686;28;124194;-77
2023/10/23 07:06:07;;;;;;;12.13;5.63;;;11.30;92.90;;;11.46;58.66;98439.88;4955453;28;115022;-78
2023/10/23 07:08:37;;;;;;;22.23;7.03;;;11.30;93.00;;;11.39;58.74;98441.50;4965408;28;113947;-78
2023/10/23 07:11:11;;;;;;;12.90;4.57;;;11.30;93.10;;;11.36;58.90;98437.44;4964838;28;124289;-78
2023/10/23 07:13:40;;;;;;;10.20;3.57;;;11.20;93.20;;;11.37;59.14;98439.09;4967313;28;123259;-77
2023/10/23 07:16:06;;;;;;;8.40;3.97;;;11.20;93.30;;;11.38;59.02;98440.72;4970045;28;114331;-78
2023/10/23 07:18:35;;;;;;;8.77;3.83;;;11.10;93.40;;;11.43;59.05;98435.00;4966141;28;114037;-77
2023/10/23 07:21:02;;;;;;;11.13;3.53;;;11.20;93.40;;;11.49;58.66;98438.41;4965090;28;124118;-77
2023/10/23 07:23:31;;;;;;;8.20;2.80;;;11.20;93.40;;;11.50;59.21;98427.03;4973895;28;123872;-78
2023/10/23 07:26:16;;;;;;;6.87;3.30;;;11.30;93.50;;;11.55;58.93;98431.56;4969511;28;114200;-77
2023/10/23 07:28:43;;;;;;;6.10;3.27;;;11.30;93.50;;;11.58;58.95;98432.88;4964632;28;113824;-77
2023/10/23 07:31:13;;;;;;;9.63;3.80;;;11.30;93.50;;;11.62;59.31;98420.00;4967035;28;124420;-78
2023/10/23 07:33:39;;;;;;;9.60;4.20;;;11.30;93.60;;;11.67;59.07;98425.38;4969197;28;124084;-78
2023/10/23 07:36:11;;;;;;;7.43;3.40;;;11.30;93.60;;;11.71;59.07;98415.25;4954596;28;114297;-78
2023/10/23 07:38:42;;;;;;;8.93;3.90;;;11.40;93.60;;;11.76;58.98;98417.84;4964748;28;115030;-79
2023/10/23 07:41:13;;;;;;;9.10;4.17;;;11.90;93.90;;;11.78;59.29;98415.56;4964140;28;124055;-78
2023/10/23 07:43:43;;;;;;;5.70;3.30;;;11.90;94.00;;;11.82;59.23;98424.88;4969058;28;123957;-80
2023/10/23 07:46:10;;;;;;;14.10;4.87;;;11.50;93.80;;;11.86;59.29;98420.31;4970467;28;114347;-79
2023/10/23 07:48:37;;;;;;;8.23;4.10;;;11.50;93.80;;;11.90;59.00;98415.75;4966558;28;112042;-79
2023/10/23 07:51:03;;;;;;;7.00;3.80;;;11.60;93.90;;;11.91;59.01;98414.59;4962075;28;124148;-78
2023/10/23 07:53:35;;;;;;;8.30;4.03;;;11.60;93.80;;;11.98;59.12;98419.59;4969587;28;123649;-79
2023/10/23 07:56:05;;;;;;;11.50;3.63;;;11.70;93.80;;;12.03;59.33;98407.53;4964192;28;114506;-80
2023/10/23 07:58:32;;;;;;;9.93;4.20;;;11.70;93.80;;;12.08;58.78;98407.38;4963300;28;114119;-80
2023/10/23 08:01:10;;;;;;;5.80;3.50;;;12.00;93.90;;;12.14;58.60;98408.78;4960021;28;123962;-79
2023/10/23 08:03:37;;;;;;;10.03;4.80;;;11.80;93.80;;;12.16;58.65;98406.50;4986753;28;122839;-79
2023/10/23 08:06:06;;;;;;;9.53;4.13;;;11.80;93.70;;;12.18;58.76;98398.69;4969061;28;114517;-79
2023/10/23 08:08:35;;;;;;;7.77;3.97;;;11.80;93.60;;;12.17;58.52;98399.84;4970448;28;114207;-79
2023/10/23 08:11:03;;;;;;;10.17;4.60;;;11.80;93.60;;;12.17;58.69;98391.53;4968517;28;124027;-78
2023/10/23 08:13:31;;;;;;;9.90;4.73;;;13.50;94.30;;;12.18;58.49;98393.16;5000051;28;123810;-78
2023/10/23 08:16:00;;;;;;;5.80;3.30;;;11.90;93.60;;;12.22;58.52;98396.88;5000785;28;114005;-79
2023/10/23 08:18:26;;;;;;;10.70;5.10;;;11.90;93.60;;;12.23;58.29;98389.38;4997519;28;114530;-79
2023/10/23 08:20:53;;;;;;;7.67;4.07;;;11.90;93.50;;;12.21;58.24;98380.59;4963587;28;123989;-79
2023/10/23 08:23:19;;;;;;;12.43;4.90;;;11.90;93.50;;;12.20;58.66;98374.25;4959286;28;122175;-78
2023/10/23 08:25:45;;;;;;;12.97;4.77;;;11.90;93.50;;;12.22;58.25;98385.78;4991980;28;115234;-79
2023/10/23 08:28:12;;;;;;;11.53;4.73;;;11.90;93.50;;;12.23;58.16;98387.44;4967379;28;115174;-79
2023/10/23 08:30:39;;;;;;;11.80;4.67;;;12.70;93.90;;;12.26;58.39;98378.44;4968145;28;124122;-80
2023/10/23 08:33:05;;;;;;;13.37;4.00;;;12.70;94.00;;;12.33;58.34;98384.28;4969915;28;121990;-78
2023/10/23 08:35:34;;;;;;;8.03;3.50;;;12.00;93.60;;;12.34;58.51;98383.13;4968148;28;114884;-78
2023/10/23 08:38:02;;;;;;;16.10;3.83;;;13.40;94.20;;;12.35;58.46;98384.75;4968452;28;114320;-79
2023/10/23 08:40:31;;;;;;;6.30;3.33;;;12.00;93.60;;;12.42;58.39;98383.44;4953163;28;123139;-79
2023/10/23 08:42:59;;;;;;;8.67;4.57;;;12.10;93.70;;;12.50;58.48;98399.19;4968621;28;123976;-79
2023/10/23 08:45:29;;;;;;;8.40;4.37;;;12.10;93.70;;;12.53;58.25;98402.09;4964217;28;114312;-81
2023/10/23 08:47:57;;;;;;;10.60;3.50;;;13.20;94.10;;;12.57;58.34;98400.28;4962754;28;113917;-81
2023/10/23 08:50:28;;;;;;;8.63;3.90;;;12.50;93.80;;;12.62;58.19;98399.25;4962459;28;124142;-81
2023/10/23 08:53:08;;;;;;;7.07;3.73;;;12.20;93.60;;;12.66;57.94;98397.44;4978251;28;124084;-81
2023/10/23 08:55:34;;;;;;;6.33;3.57;;;12.30;93.60;;;12.71;57.90;98388.94;4971058;28;114260;-81
2023/10/23 08:58:07;;;;;;;8.20;3.70;;;12.30;93.50;;;12.75;57.72;98391.84;4968756;28;114341;-82
2023/10/23 09:00:33;;;;;;;9.07;4.33;;;12.30;93.50;;;12.76;57.91;98393.44;4968741;28;123827;-81
2023/10/23 09:03:00;;;;;;;7.80;3.63;;;12.50;93.50;;;12.79;57.82;98387.25;4966401;28;123669;-80
2023/10/23 09:05:27;;;;;;;7.20;3.47;;;12.40;93.40;;;12.84;57.78;98384.25;4981655;28;114297;-81
2023/10/23 09:07:54;;;;;;;11.10;4.40;;;13.30;93.80;;;12.90;57.63;98376.56;4974281;28;114250;-83
2023/10/23 09:10:20;;;;;;;12.47;5.23;;;12.50;93.40;;;12.93;57.46;98370.34;4956464;28;123089;-81
2023/10/23 09:12:54;;;;;;;10.33;4.93;;;12.60;93.40;;;12.95;57.71;98365.25;4973428;28;123381;-81
2023/10/23 09:15:23;;;;;;;13.83;4.10;;;12.60;93.50;;;12.97;57.80;98368.50;4969858;28;115270;-81
2023/10/23 09:17:49;;;;;;;8.60;3.47;;;12.50;93.40;;;13.00;57.52;98367.81;4969884;28;114884;-78
2023/10/23 09:20:23;;;;;;;11.93;4.40;;;12.60;93.40;;;13.05;57.56;98356.53;4967583;28;124610;-77
2023/10/23 09:22:52;;;;;;;9.13;4.00;;;12.60;93.40;;;13.09;57.43;98359.47;4989190;28;124065;-79
2023/10/23 09:25:25;;;;;;;9.50;4.90;;;12.70;93.40;;;13.10;57.27;98352.75;4970844;28;115468;-78
2023/10/23 09:27:52;;;;;;;12.47;4.33;;;12.70;93.30;;;13.05;57.28;98354.56;5003064;28;114020;-78
2023/10/23 09:30:22;;;;;;;15.90;4.60;;;12.70;93.60;;;13.05;57.26;98362.06;4970302;28;124039;-80
2023/10/23 09:32:53;;;;;;;13.50;4.07;;;12.70;93.30;;;13.05;57.31;98360.09;4956861;28;123318;-79
2023/10/23 09:35:24;;;;;;;11.90;4.20;;;12.70;93.30;;;13.07;57.28;98365.31;4972105;28;113812;-79
2023/10/23 09:37:51;;;;;;;12.97;4.50;;;12.70;93.30;;;13.13;57.55;98365.94;4974058;28;114071;-79
2023/10/23 09:40:20;;;;;;;17.30;4.87;;;12.70;93.30;;;13.10;57.32;98361.88;4970747;28;124096;-77
2023/10/23 09:42:46;;;;;;;15.60;5.20;;;14.30;94.00;;;13.06;57.80;98369.25;4969965;28;123892;-77
2023/10/23 09:45:15;;;;;;;17.40;4.50;;;12.70;93.30;;;13.07;57.56;98370.88;4971850;28;113292;-78
2023/10/23 09:47:41;;;;;;;10.50;4.50;;;13.50;93.70;;;13.06;57.63;98374.81;4958704;28;114114;-78
2023/10/23 09:50:08;;;;;;;17.13;4.60;;;15.30;94.50;;;13.07;57.46;98370.06;4955952;28;123023;-79
2023/10/23 09:52:36;;;;;;;19.03;5.40;;;12.70;93.30;;;13.08;57.49;98377.22;4968875;28;125010;-77
2023/10/23 09:55:05;;;;;;;8.63;3.67;;;12.70;93.40;;;13.05;57.80;98376.75;4970678;28;114031;-78
2023/10/23 09:57:46;;;;;;;9.27;5.37;;;12.70;93.40;;;13.03;57.70;98379.06;4972634;28;113517;-78
2023/10/23 10:00:16;;;;;;;15.53;4.97;;;12.70;93.40;;;13.04;57.93;98382.66;4965411;28;124229;-79
2023/10/23 10:02:55;;;;;;;7.97;4.07;;;12.70;93.40;;;13.05;57.55;98375.94;4980136;28;123242;-78
2023/10/23 10:05:33;;;;;;;14.90;6.00;;;12.70;93.40;;;13.10;57.77;98375.75;4969636;28;115242;-78
2023/10/23 10:08:08;;;;;;;12.23;5.70;;;12.80;93.40;;;13.11;57.74;98377.38;4971713;28;115673;-77
2023/10/23 10:10:39;;;;;;;17.17;6.60;;;12.80;93.40;;;13.16;57.73;98362.47;4969566;28;124280;-78
2023/10/23 10:13:09;;;;;;;22.00;6.57;;;12.90;93.40;;;13.22;57.59;98359.16;4969399;28;124196;-80
2023/10/23 10:15:36;;;;;;;17.30;5.33;;;12.90;93.40;;;13.26;57.68;98346.25;4973134;28;114375;-78